Time;durP1;ratioP1;P1;durP2;ratioP2;P2;SDS_P1;SDS_P2;PMS_P1;PMS_P2;Temp;Humidity;BMP_temperature;BMP_pressure;BME280_temperature;BME280_humidity;BME280_pressure;Samples;Min_cycle;Max_cycle;Signal;HPM_P1;HPM_P2
2022/12/01 00:02:02;;;;;;;0.03;0.03;;;;;;;11.16;75.61;101958.97;7362299;19;20529;-57
2022/12/01 00:04:27;;;;;;;0.00;0.00;;;;;;;11.30;75.39;101994.63;7362639;19;20019;-58
2022/12/01 00:06:52;;;;;;;0.00;0.00;;;;;;;11.23;75.61;101993.78;7362062;19;20021;-59
2022/12/01 00:12:02;;;;;;;0.00;0.00;;;;;;;11.18;76.08;102004.28;7363080;19;20035;-58
2022/12/01 00:14:27;;;;;;;0.10;0.10;;;;;;;11.12;76.02;101999.06;7363272;19;22439;-58
2022/12/01 00:16:53;;;;;;;0.10;0.10;;;;;;;11.08;76.24;101997.34;7360464;19;20031;-58
2022/12/01 00:19:18;;;;;;;0.00;0.00;;;;;;;11.03;76.41;101999.09;7362276;19;20101;-59
2022/12/01 00:21:44;;;;;;;0.00;0.00;;;;;;;10.98;76.10;101990.41;7361418;19;20618;-59
2022/12/01 00:24:11;;;;;;;0.00;0.00;;;;;;;11.05;76.43;102007.81;7362071;19;20027;-58
2022/12/01 00:26:37;;;;;;;0.10;0.10;;;;;;;10.94;76.25;101983.44;7360370;19;20010;-58
2022/12/01 00:29:02;;;;;;;0.10;0.10;;;;;;;10.94;76.56;101986.06;7362807;19;20722;-59
2022/12/01 00:31:28;;;;;;;0.03;0.03;;;;;;;11.05;76.56;102001.69;7361316;19;20022;-59
2022/12/01 00:33:54;;;;;;;0.00;0.00;;;;;;;10.92;76.44;101985.22;7362289;19;20838;-58
2022/12/01 00:36:19;;;;;;;0.10;0.10;;;;;;;11.01;76.22;101998.25;7363190;19;20013;-59
2022/12/01 00:38:45;;;;;;;0.00;0.00;;;;;;;11.05;76.25;102007.81;7362248;19;20034;-58
2022/12/01 00:41:11;;;;;;;0.10;0.10;;;;;;;11.07;76.61;102006.06;7363170;19;20015;-59
2022/12/01 00:43:36;;;;;;;0.00;0.00;;;;;;;11.07;76.49;102006.06;7361968;19;20006;-59
2022/12/01 00:46:02;;;;;;;0.10;0.10;;;;;;;11.10;76.29;102011.28;7365014;19;20029;-59
2022/12/01 00:48:28;;;;;;;0.03;0.03;;;;;;;11.09;76.21;102008.66;7362872;19;20022;-59
2022/12/01 00:50:54;;;;;;;0.00;0.00;;;;;;;11.14;76.17;102015.59;7364731;19;20021;-59
2022/12/01 00:53:20;;;;;;;0.03;0.03;;;;;;;11.16;76.55;102018.25;7364685;19;20037;-58
2022/12/01 00:55:45;;;;;;;0.00;0.00;;;;;;;11.06;75.90;101998.25;7363862;19;20027;-58
2022/12/01 00:58:11;;;;;;;0.00;0.00;;;;;;;11.18;76.17;102013.88;7363618;19;20014;-59
2022/12/01 01:00:37;;;;;;;0.00;0.00;;;;;;;11.23;76.15;102019.06;7360835;19;20038;-58
2022/12/01 01:03:06;;;;;;;0.00;0.00;;;;;;;11.25;76.05;102027.78;7363244;19;20050;-58
2022/12/01 01:05:35;;;;;;;0.00;0.00;;;;;;;11.29;75.98;102025.13;7364129;19;20727;-59
2022/12/01 01:08:01;;;;;;;0.00;0.00;;;;;;;11.29;75.76;102037.34;7363595;19;20010;-59
2022/12/01 01:10:26;;;;;;;0.00;0.00;;;;;;;11.31;75.67;102035.63;7363171;19;20510;-58
2022/12/01 01:12:52;;;;;;;0.10;0.10;;;;;;;11.33;75.44;102033.84;7359385;19;20622;-59
2022/12/01 01:15:18;;;;;;;0.00;0.00;;;;;;;11.35;75.47;102032.97;7362811;19;20082;-58
2022/12/01 01:17:43;;;;;;;0.00;0.00;;;;;;;11.38;74.97;102037.31;7360597;19;20038;-58
2022/12/01 01:20:09;;;;;;;0.00;0.00;;;;;;;11.40;75.12;102046.00;7361678;19;20669;-59
2022/12/01 01:22:34;;;;;;;0.10;0.10;;;;;;;11.42;75.40;102039.03;7364518;19;20021;-58
2022/12/01 01:25:00;;;;;;;0.00;0.00;;;;;;;11.43;75.30;102043.38;7363271;19;20014;-58
2022/12/01 01:27:25;;;;;;;0.10;0.10;;;;;;;11.47;75.06;102047.75;7359937;19;20011;-59
2022/12/01 01:29:50;;;;;;;0.10;0.10;;;;;;;11.34;74.68;102026.00;7362669;19;20715;-57
2022/12/01 01:32:16;;;;;;;0.05;0.05;;;;;;;11.51;74.64;102053.84;7362198;19;20014;-58
2022/12/01 01:34:41;;;;;;;0.08;0.08;;;;;;;11.54;74.88;102059.03;7362196;19;20038;-58
2022/12/01 01:37:07;;;;;;;0.00;0.00;;;;;;;11.54;74.68;102054.66;7360389;19;20006;-57
2022/12/01 01:39:32;;;;;;;0.00;0.00;;;;;;;11.58;74.51;102050.28;7362929;19;20014;-59
2022/12/01 01:41:57;;;;;;;0.00;0.00;;;;;;;11.60;74.50;102053.75;7362559;19;20017;-59
2022/12/01 01:44:52;;;;;;;0.00;0.00;;;;;;;11.66;74.52;102059.84;7362124;19;20006;-58
2022/12/01 01:47:33;;;;;;;0.00;0.00;;;;;;;11.68;74.83;102058.09;7260800;19;2004473;-59
2022/12/01 01:50:05;;;;;;;0.10;0.10;;;;;;;11.65;74.66;102052.84;7363837;19;20027;-58
2022/12/01 01:52:34;;;;;;;0.05;0.05;;;;;;;11.68;74.82;102057.22;7356120;19;20017;-59
2022/12/01 01:55:00;;;;;;;0.00;0.00;;;;;;;11.67;74.72;102056.34;7363481;19;20035;-59
2022/12/01 01:57:29;;;;;;;0.00;0.00;;;;;;;11.69;74.43;102051.09;7362501;19;20467;-58
2022/12/01 02:00:07;;;;;;;0.08;0.08;;;;;;;11.74;74.40;102056.31;7362159;19;20584;-59
2022/12/01 02:02:39;;;;;;;0.00;0.00;;;;;;;11.72;74.88;102053.72;7363696;19;20016;-59
2022/12/01 02:05:09;;;;;;;0.00;0.00;;;;;;;11.67;74.49;102050.25;7361192;19;20121;-59
2022/12/01 02:07:37;;;;;;;0.10;0.10;;;;;;;11.73;74.62;102054.56;7362125;19;20034;-58
2022/12/01 02:10:04;;;;;;;0.00;0.00;;;;;;;11.74;74.74;102051.06;7355264;19;20036;-58
2022/12/01 02:12:36;;;;;;;0.05;0.05;;;;;;;11.74;74.77;102051.06;7361077;19;20014;-58
2022/12/01 02:15:19;;;;;;;0.10;0.10;;;;;;;11.79;74.59;102055.41;7361052;19;20029;-58
2022/12/01 02:18:12;;;;;;;0.00;0.00;;;;;;;11.79;74.60;102051.91;7358888;19;20017;-58
2022/12/01 02:21:13;;;;;;;0.10;0.10;;;;;;;11.80;74.15;102057.13;7259781;19;2004485;-59
2022/12/01 02:24:07;;;;;;;0.10;0.10;;;;;;;11.79;74.50;102050.16;7260564;19;2004389;-59
2022/12/01 02:26:38;;;;;;;0.10;0.10;;;;;;;11.76;74.54;102044.97;7257784;19;2004361;-58
2022/12/01 02:29:37;;;;;;;0.03;0.03;;;;;;;11.80;74.41;102046.66;7361954;19;20607;-59
2022/12/01 02:32:09;;;;;;;0.03;0.03;;;;;;;11.78;74.67;102047.56;7260595;19;2004452;-58
2022/12/01 02:34:40;;;;;;;0.00;0.00;;;;;;;11.76;74.59;102054.53;7362397;19;20017;-59
2022/12/01 02:37:15;;;;;;;0.00;0.00;;;;;;;11.79;74.66;102054.53;7354981;19;20339;-59
2022/12/01 02:39:58;;;;;;;0.00;0.00;;;;;;;11.81;74.47;102052.75;7362395;19;20789;-59
2022/12/01 02:42:48;;;;;;;0.00;0.00;;;;;;;11.81;74.25;102055.38;7362450;19;20867;-57
2022/12/01 02:45:21;;;;;;;0.00;0.00;;;;;;;11.81;74.02;102052.75;7358593;19;20142;-59
2022/12/01 02:47:51;;;;;;;0.05;0.05;;;;;;;11.80;74.23;102048.41;7363062;19;20765;-59
2022/12/01 02:50:17;;;;;;;0.08;0.08;;;;;;;11.80;73.80;102051.03;7359593;19;20010;-57
2022/12/01 02:52:43;;;;;;;0.08;0.08;;;;;;;11.79;73.90;102054.53;7362411;19;20082;-59
2022/12/01 02:55:09;;;;;;;0.00;0.00;;;;;;;11.80;73.33;102053.66;7359465;19;20569;-59
2022/12/01 02:57:34;;;;;;;0.10;0.10;;;;;;;11.66;73.60;102033.69;7357743;19;20444;-57
2022/12/01 03:00:00;;;;;;;0.00;0.00;;;;;;;11.79;73.17;102055.41;7356112;19;20006;-59
2022/12/01 03:02:41;;;;;;;0.00;0.00;;;;;;;11.81;73.53;102058.91;7359163;19;20545;-58
2022/12/01 03:05:07;;;;;;;0.03;0.03;;;;;;;11.78;73.31;102058.03;7363883;19;20079;-58
2022/12/01 03:08:18;;;;;;;0.00;0.00;;;;;;;11.81;73.34;102058.91;7365405;19;21228;-58
2022/12/01 03:10:54;;;;;;;0.10;0.10;;;;;;;11.79;73.59;102060.63;7262049;19;2004383;-58
2022/12/01 03:13:34;;;;;;;0.00;0.00;;;;;;;11.79;73.44;102065.00;7360941;19;20010;-59
2022/12/01 03:16:07;;;;;;;0.00;0.00;;;;;;;11.78;73.35;102058.03;7362506;19;20039;-57
2022/12/01 03:18:42;;;;;;;0.05;0.05;;;;;;;11.74;73.74;102062.41;7365360;19;20014;-58
2022/12/01 03:21:39;;;;;;;0.00;0.00;;;;;;;11.68;73.18;102041.53;7364816;19;20038;-58
2022/12/01 03:24:18;;;;;;;0.10;0.10;;;;;;;11.73;73.30;102054.56;7255730;19;2004567;-59
2022/12/01 03:26:50;;;;;;;0.00;0.00;;;;;;;11.59;73.72;102038.94;7365921;19;20014;-59
2022/12/01 03:29:24;;;;;;;0.00;0.00;;;;;;;11.70;73.39;102056.31;7363065;19;20421;-59
2022/12/01 03:32:02;;;;;;;0.10;0.10;;;;;;;11.67;73.74;102056.34;7364046;19;20523;-59
2022/12/01 03:34:34;;;;;;;0.08;0.08;;;;;;;11.66;73.28;102059.00;7364398;19;20018;-59
2022/12/01 03:37:34;;;;;;;0.00;0.00;;;;;;;11.71;73.25;102051.97;7361427;19;20583;-59
2022/12/01 03:40:05;;;;;;;0.00;0.00;;;;;;;11.68;73.41;102052.00;7260639;19;2004191;-57
2022/12/01 03:42:52;;;;;;;0.00;0.00;;;;;;;11.64;73.23;102061.59;7365528;19;20006;-59
2022/12/01 03:45:25;;;;;;;0.00;0.00;;;;;;;11.66;73.54;102054.63;7364101;19;20011;-58
2022/12/01 03:47:50;;;;;;;0.00;0.00;;;;;;;11.65;73.11;102065.06;7361836;19;20014;-59
2022/12/01 03:50:17;;;;;;;0.00;0.00;;;;;;;11.66;73.24;102070.31;7363664;19;20437;-59
2022/12/01 03:52:45;;;;;;;0.00;0.00;;;;;;;11.66;73.30;102065.09;7366186;19;20011;-58
2022/12/01 03:55:23;;;;;;;0.10;0.10;;;;;;;11.68;73.10;102062.44;7363221;19;20544;-58
2022/12/01 03:57:54;;;;;;;0.10;0.10;;;;;;;11.66;73.05;102061.59;7360933;19;20074;-59
2022/12/01 04:00:20;;;;;;;0.10;0.10;;;;;;;11.67;73.37;102060.72;7363661;19;20018;-58
2022/12/01 04:02:45;;;;;;;0.10;0.10;;;;;;;11.66;73.24;102059.84;7356554;19;20022;-58
2022/12/01 04:05:12;;;;;;;0.10;0.10;;;;;;;11.67;72.86;102072.06;7347409;19;20007;-59
2022/12/01 04:07:38;;;;;;;0.03;0.03;;;;;;;11.62;73.18;102058.13;7365427;19;20021;-58
2022/12/01 04:10:05;;;;;;;0.05;0.05;;;;;;;11.69;72.95;102075.53;7360824;19;20454;-59
2022/12/01 04:12:31;;;;;;;0.00;0.00;;;;;;;11.69;72.84;102070.28;7364788;19;20032;-56
2022/12/01 04:15:07;;;;;;;0.10;0.10;;;;;;;11.75;72.96;102076.34;7364136;19;20362;-59
2022/12/01 04:17:32;;;;;;;0.00;0.00;;;;;;;11.67;73.11;102066.81;7363407;19;20018;-58
2022/12/01 04:19:58;;;;;;;0.00;0.00;;;;;;;11.73;72.82;102070.28;7350305;19;20688;-58
2022/12/01 04:22:24;;;;;;;0.10;0.10;;;;;;;11.74;72.85;102072.88;7363851;19;20604;-59
2022/12/01 04:24:49;;;;;;;0.08;0.08;;;;;;;11.72;72.85;102065.94;7359752;19;20010;-59
2022/12/01 04:27:15;;;;;;;0.10;0.10;;;;;;;11.75;73.23;102068.50;7361912;19;20027;-57
2022/12/01 04:29:40;;;;;;;0.10;0.10;;;;;;;11.74;73.26;102070.25;7360475;19;22102;-59
2022/12/01 04:32:06;;;;;;;0.08;0.08;;;;;;;11.76;73.16;102076.38;7360824;19;20021;-58
2022/12/01 04:34:31;;;;;;;0.00;0.00;;;;;;;11.73;73.12;102070.28;7363328;19;20111;-56
2022/12/01 04:36:57;;;;;;;0.00;0.00;;;;;;;11.78;73.14;102074.59;7361916;19;20029;-58
2022/12/01 04:39:22;;;;;;;0.00;0.00;;;;;;;11.78;73.00;102073.75;7359506;19;20014;-59
2022/12/01 04:41:48;;;;;;;0.00;0.00;;;;;;;11.75;72.50;102064.13;7361879;19;20785;-59
2022/12/01 04:44:13;;;;;;;0.00;0.00;;;;;;;11.66;72.54;102048.53;7363263;19;20041;-59
2022/12/01 04:46:39;;;;;;;0.10;0.10;;;;;;;11.78;72.54;102064.13;7359004;19;20033;-58
2022/12/01 04:49:04;;;;;;;0.10;0.10;;;;;;;11.76;72.60;102054.53;7362011;19;20014;-59
2022/12/01 04:51:30;;;;;;;0.10;0.10;;;;;;;11.61;72.74;102019.75;7360694;19;20007;-59
2022/12/01 04:53:56;;;;;;;0.03;0.03;;;;;;;11.78;72.33;102044.94;7363715;19;20006;-58
2022/12/01 04:56:21;;;;;;;0.05;0.05;;;;;;;11.72;72.58;102038.00;7361798;19;20106;-58
2022/12/01 04:58:47;;;;;;;0.10;0.10;;;;;;;11.79;72.23;102047.56;7358596;19;20052;-59
2022/12/01 05:01:14;;;;;;;0.03;0.03;;;;;;;11.80;72.29;102057.13;7363272;19;20023;-58
2022/12/01 05:03:41;;;;;;;;;;;;;;;11.85;72.83;102059.75;7360648;19;20026;-57
2022/12/01 05:06:11;;;;;;;0.00;0.00;;;;;;;11.67;72.31;102031.94;7363048;19;20410;-59
2022/12/01 05:08:36;;;;;;;0.10;0.10;;;;;;;11.80;71.92;102064.13;7361312;19;20006;-59
2022/12/01 05:11:02;;;;;;;0.10;0.10;;;;;;;11.79;72.21;102065.00;7361748;19;20017;-58
2022/12/01 05:13:27;;;;;;;0.10;0.10;;;;;;;11.65;72.26;102039.78;7360770;19;20046;-56
2022/12/01 05:15:53;;;;;;;0.08;0.08;;;;;;;11.71;71.98;102054.59;7361598;19;20086;-59
2022/12/01 05:18:19;;;;;;;0.00;0.00;;;;;;;11.76;72.10;102059.78;7361609;19;20010;-59
2022/12/01 05:20:56;;;;;;;0.00;0.00;;;;;;;11.74;71.92;102064.16;7362173;19;20002;-57
2022/12/01 05:23:27;;;;;;;0.00;0.00;;;;;;;11.76;71.88;102062.38;7362244;19;20082;-58
2022/12/01 05:25:52;;;;;;;0.00;0.00;;;;;;;11.64;71.52;102048.50;7359925;19;20007;-57
2022/12/01 05:28:18;;;;;;;0.00;0.00;;;;;;;11.70;71.59;102064.16;7359319;19;20006;-59
2022/12/01 05:30:44;;;;;;;0.08;0.08;;;;;;;11.73;71.82;102067.66;7355565;19;20011;-58
2022/12/01 05:33:09;;;;;;;0.10;0.10;;;;;;;11.71;71.89;102067.69;7359745;19;20757;-59
2022/12/01 05:35:35;;;;;;;0.00;0.00;;;;;;;11.69;71.25;102070.28;7360193;19;20011;-57
2022/12/01 05:38:01;;;;;;;0.00;0.00;;;;;;;11.67;71.67;102072.06;7360122;19;20790;-59
2022/12/01 05:40:27;;;;;;;0.00;0.00;;;;;;;11.64;71.56;102061.59;7357905;19;20111;-58
2022/12/01 05:42:52;;;;;;;0.10;0.10;;;;;;;11.61;71.50;102063.38;7361148;19;20018;-58
2022/12/01 05:45:17;;;;;;;0.10;0.10;;;;;;;11.58;71.98;102061.63;7357390;19;20014;-59
2022/12/01 05:47:43;;;;;;;0.00;0.00;;;;;;;11.57;72.00;102059.03;7361155;19;20375;-57
2022/12/01 05:50:09;;;;;;;0.00;0.00;;;;;;;11.53;71.54;102052.94;7359908;19;20010;-59
2022/12/01 05:52:35;;;;;;;0.00;0.00;;;;;;;11.48;71.51;102049.47;7363370;19;20012;-58
2022/12/01 05:55:02;;;;;;;0.00;0.00;;;;;;;11.47;71.63;102049.50;7359982;19;20012;-58
2022/12/01 05:57:28;;;;;;;0.10;0.10;;;;;;;11.42;71.88;102041.66;7361688;19;20026;-59
2022/12/01 05:59:53;;;;;;;0.00;0.00;;;;;;;11.38;71.87;102043.41;7359680;19;20026;-58
2022/12/01 06:02:19;;;;;;;0.00;0.00;;;;;;;11.34;71.86;102051.28;7360569;19;20033;-59
2022/12/01 06:04:44;;;;;;;0.10;0.10;;;;;;;11.30;72.14;102050.41;7356164;19;20047;-58
2022/12/01 06:07:09;;;;;;;0.10;0.10;;;;;;;11.29;71.39;102055.66;7361370;19;20017;-58
2022/12/01 06:09:35;;;;;;;0.10;0.10;;;;;;;11.20;71.98;102051.31;7358641;19;20480;-59
2022/12/01 06:12:00;;;;;;;0.10;0.10;;;;;;;11.21;72.15;102065.28;7362381;19;20077;-58
2022/12/01 06:14:26;;;;;;;0.00;0.00;;;;;;;11.13;71.59;102063.56;7360288;19;20044;-59
2022/12/01 06:16:51;;;;;;;0.00;0.00;;;;;;;11.15;71.79;102076.59;7360720;19;20014;-59
2022/12/01 06:19:16;;;;;;;0.10;0.10;;;;;;;11.08;72.26;102080.13;7358892;19;20011;-58
2022/12/01 06:21:42;;;;;;;0.08;0.08;;;;;;;11.07;71.82;102084.50;7359373;19;20078;-57
2022/12/01 06:24:11;;;;;;;0.00;0.00;;;;;;;11.04;72.41;102079.25;7359182;19;20014;-59
2022/12/01 06:26:36;;;;;;;0.05;0.05;;;;;;;11.00;72.35;102088.00;7361040;19;20031;-58
2022/12/01 06:29:02;;;;;;;0.10;0.10;;;;;;;10.97;72.44;102093.22;7356138;19;20118;-59
2022/12/01 06:31:27;;;;;;;0.10;0.10;;;;;;;10.94;72.65;102087.13;7359671;19;20050;-59
2022/12/01 06:33:52;;;;;;;0.00;0.00;;;;;;;10.91;72.59;102080.19;7353641;19;20014;-58
2022/12/01 06:36:18;;;;;;;0.10;0.10;;;;;;;10.78;72.53;102068.88;7361136;19;20014;-58
2022/12/01 06:38:43;;;;;;;0.00;0.00;;;;;;;10.87;72.13;102086.28;7358821;19;20043;-56
2022/12/01 06:41:09;;;;;;;0.03;0.03;;;;;;;10.73;72.11;102067.13;7357931;19;20026;-57
2022/12/01 06:43:36;;;;;;;0.00;0.00;;;;;;;10.76;72.69;102072.38;7350962;19;20011;-58
2022/12/01 06:46:03;;;;;;;0.00;0.00;;;;;;;10.88;72.52;102098.47;7359313;19;20056;-57
2022/12/01 06:48:29;;;;;;;0.00;0.00;;;;;;;10.89;72.65;102095.84;7353648;19;20022;-58
2022/12/01 06:51:00;;;;;;;0.00;0.00;;;;;;;10.92;72.34;102100.22;7358027;19;20019;-57
2022/12/01 06:53:27;;;;;;;0.00;0.00;;;;;;;10.90;72.31;102096.75;7358918;19;20048;-58
2022/12/01 06:55:53;;;;;;;0.00;0.00;;;;;;;10.93;72.43;102101.94;7361716;19;20046;-59
2022/12/01 06:58:18;;;;;;;0.00;0.00;;;;;;;10.94;72.60;102093.22;7349490;19;20463;-59
2022/12/01 07:00:44;;;;;;;0.00;0.00;;;;;;;10.98;72.70;102100.19;7361213;19;20010;-57
2022/12/01 07:03:12;;;;;;;0.10;0.10;;;;;;;10.97;72.27;102089.75;7358529;19;20057;-59
2022/12/01 07:05:37;;;;;;;0.00;0.00;;;;;;;11.03;72.47;102090.59;7358156;19;20010;-59
2022/12/01 07:08:03;;;;;;;0.00;0.00;;;;;;;10.96;72.24;102075.81;7347439;19;20078;-56
2022/12/01 07:10:28;;;;;;;0.00;0.00;;;;;;;11.06;72.53;102093.22;7361130;19;20010;-59
2022/12/01 07:12:56;;;;;;;0.10;0.10;;;;;;;11.14;72.51;102098.41;7360907;19;20017;-59
2022/12/01 07:15:23;;;;;;;0.00;0.00;;;;;;;11.09;72.11;102081.88;7359319;19;21206;-59
2022/12/01 07:17:49;;;;;;;0.00;0.00;;;;;;;11.17;72.10;102090.56;7359399;19;20031;-59
2022/12/01 07:20:14;;;;;;;0.08;0.08;;;;;;;11.18;72.21;102098.41;7360541;19;20031;-59
2022/12/01 07:22:41;;;;;;;0.00;0.00;;;;;;;11.22;72.19;102098.41;7353806;19;20007;-59
2022/12/01 07:25:07;;;;;;;0.00;0.00;;;;;;;11.14;71.99;102085.34;7354041;19;20024;-58
2022/12/01 07:27:33;;;;;;;0.00;0.00;;;;;;;11.24;72.21;102094.88;7354307;19;20014;-59
2022/12/01 07:29:58;;;;;;;0.10;0.10;;;;;;;11.26;71.99;102094.91;7352796;19;20010;-58
2022/12/01 07:32:23;;;;;;;0.00;0.00;;;;;;;11.28;71.66;102093.16;7355312;19;20021;-58
2022/12/01 07:34:49;;;;;;;0.10;0.10;;;;;;;11.29;72.07;102090.50;7358827;19;20067;-58
2022/12/01 07:37:14;;;;;;;0.00;0.00;;;;;;;11.28;71.54;102085.31;7356618;19;20006;-58
2022/12/01 07:39:40;;;;;;;0.10;0.10;;;;;;;11.30;71.70;102091.38;7355391;19;20078;-57
2022/12/01 07:42:05;;;;;;;0.10;0.10;;;;;;;11.20;71.51;102084.44;7343392;19;20014;-59
2022/12/01 07:44:30;;;;;;;0.00;0.00;;;;;;;11.31;71.17;102098.38;7359252;19;20010;-58
2022/12/01 07:46:56;;;;;;;0.00;0.00;;;;;;;11.31;71.08;102093.16;7357715;19;20645;-57
2022/12/01 07:49:21;;;;;;;0.00;0.00;;;;;;;11.34;71.43;102103.56;7359196;19;20700;-59
2022/12/01 07:51:47;;;;;;;0.00;0.00;;;;;;;11.33;70.60;102101.84;7362844;19;20010;-59
2022/12/01 07:54:16;;;;;;;0.08;0.08;;;;;;;11.35;71.17;102110.53;7364960;19;20026;-58
2022/12/01 07:56:42;;;;;;;0.00;0.00;;;;;;;11.31;70.72;102098.38;7363132;19;20808;-58
2022/12/01 07:59:07;;;;;;;0.00;0.00;;;;;;;11.32;70.83;102105.34;7360903;19;20018;-59
2022/12/01 08:01:33;;;;;;;0.10;0.10;;;;;;;11.34;71.03;102111.41;7364546;19;20042;-58
2022/12/01 08:03:59;;;;;;;0.10;0.10;;;;;;;11.24;70.62;102107.09;7366576;19;20021;-59
2022/12/01 08:06:25;;;;;;;0.10;0.10;;;;;;;11.35;70.93;102121.91;7356380;19;20780;-58
2022/12/01 08:08:51;;;;;;;0.00;0.00;;;;;;;11.36;71.41;102117.53;7355967;19;20011;-58
2022/12/01 08:11:17;;;;;;;0.10;0.10;;;;;;;11.36;70.90;102130.63;7359764;19;20010;-59
2022/12/01 08:13:42;;;;;;;0.10;0.10;;;;;;;11.38;71.01;102131.47;7366288;19;20960;-59
2022/12/01 08:16:10;;;;;;;0.00;0.00;;;;;;;11.39;70.83;102133.19;7365134;19;20572;-58
2022/12/01 08:18:37;;;;;;;0.08;0.08;;;;;;;11.38;70.58;102131.47;7365820;19;20010;-58
2022/12/01 08:21:04;;;;;;;0.10;0.10;;;;;;;11.39;70.80;102134.06;7365468;19;20030;-59
2022/12/01 08:23:29;;;;;;;0.10;0.10;;;;;;;11.39;70.73;102138.44;7366164;19;20024;-59
2022/12/01 08:25:56;;;;;;;0.10;0.10;;;;;;;11.40;70.48;102132.31;7362150;19;20026;-58
2022/12/01 08:28:22;;;;;;;0.00;0.00;;;;;;;11.40;70.69;102135.84;7363331;19;20025;-58
2022/12/01 08:30:47;;;;;;;0.00;0.00;;;;;;;11.41;70.75;102129.72;7362844;19;20065;-58
2022/12/01 08:33:13;;;;;;;0.00;0.00;;;;;;;11.42;70.78;102141.06;7358478;19;20523;-59
2022/12/01 08:35:38;;;;;;;0.10;0.10;;;;;;;11.42;70.75;102136.69;7360429;19;20014;-56
2022/12/01 08:38:04;;;;;;;0.10;0.10;;;;;;;11.41;70.50;102134.09;7360831;19;20097;-59
2022/12/01 08:40:29;;;;;;;0.00;0.00;;;;;;;11.44;70.45;102142.78;7362101;19;20018;-58
2022/12/01 08:42:55;;;;;;;0.05;0.05;;;;;;;11.48;70.50;102142.78;7364371;19;20011;-58
2022/12/01 08:45:21;;;;;;;0.10;0.10;;;;;;;11.50;70.09;102141.88;7354624;19;20035;-56
2022/12/01 08:47:47;;;;;;;0.00;0.00;;;;;;;11.51;70.24;102137.53;7364094;19;20042;-59
2022/12/01 08:50:13;;;;;;;0.10;0.10;;;;;;;11.52;70.40;102144.50;7364728;19;20785;-58
2022/12/01 08:52:38;;;;;;;0.00;0.00;;;;;;;11.53;70.10;102134.03;7363371;19;20010;-59
2022/12/01 08:55:05;;;;;;;0.10;0.10;;;;;;;11.53;70.45;102136.66;7361147;19;20017;-57
2022/12/01 08:57:31;;;;;;;0.05;0.05;;;;;;;11.53;70.45;102134.03;7364222;19;20014;-59
2022/12/01 08:59:56;;;;;;;0.10;0.10;;;;;;;11.55;70.53;102137.50;7363125;19;20010;-58
2022/12/01 09:02:22;;;;;;;0.00;0.00;;;;;;;11.56;70.10;102135.78;7362992;19;20010;-59
2022/12/01 09:04:48;;;;;;;0.10;0.10;;;;;;;11.56;70.25;102136.66;7360624;19;20010;-59
2022/12/01 09:07:15;;;;;;;0.00;0.00;;;;;;;11.59;70.15;102140.97;7359148;19;20013;-51
2022/12/01 09:09:41;;;;;;;0.00;0.00;;;;;;;11.47;70.59;102120.97;7355160;19;20038;-55
2022/12/01 09:12:08;;;;;;;0.00;0.00;;;;;;;11.61;70.28;102145.34;7364255;19;20015;-56
2022/12/01 09:14:38;;;;;;;0.00;0.00;;;;;;;11.66;70.60;102138.34;7357019;19;20034;-56
2022/12/01 09:17:03;;;;;;;0.10;0.10;;;;;;;11.66;70.52;102138.34;7363141;19;20010;-57
2022/12/01 09:19:29;;;;;;;0.00;0.00;;;;;;;11.69;70.87;102138.31;7364592;19;20407;-57
2022/12/01 09:21:55;;;;;;;0.00;0.00;;;;;;;11.73;70.49;102135.69;7361279;19;20011;-54
2022/12/01 09:24:20;;;;;;;0.10;0.10;;;;;;;11.75;70.42;102136.56;7363096;19;20729;-57
2022/12/01 09:26:46;;;;;;;0.08;0.08;;;;;;;11.79;70.54;102135.66;7364434;19;20841;-55
2022/12/01 09:29:13;;;;;;;0.10;0.10;;;;;;;11.84;69.94;102136.53;7360925;19;20566;-56
2022/12/01 09:31:39;;;;;;;0.10;0.10;;;;;;;11.86;70.04;102130.44;7363861;19;20033;-54
2022/12/01 09:34:07;;;;;;;0.00;0.00;;;;;;;11.89;70.16;102126.94;7362488;19;20025;-55
2022/12/01 09:36:34;;;;;;;0.10;0.10;;;;;;;11.96;70.14;102146.94;7363960;19;20010;-54
2022/12/01 09:39:00;;;;;;;0.10;0.10;;;;;;;12.00;70.13;102142.56;7357278;19;20053;-51
2022/12/01 09:41:39;;;;;;;0.03;0.03;;;;;;;12.08;70.18;102151.25;7360928;19;20424;-53
2022/12/01 09:44:36;;;;;;;0.10;0.10;;;;;;;12.13;70.53;102149.50;7359536;19;20022;-55
2022/12/01 09:47:02;;;;;;;0.08;0.08;;;;;;;12.15;70.04;102152.97;7261081;19;2004487;-56
2022/12/01 09:49:53;;;;;;;0.03;0.03;;;;;;;12.23;70.06;102153.78;7361555;19;20017;-57
2022/12/01 09:52:20;;;;;;;0.05;0.05;;;;;;;12.22;69.49;102146.81;7253649;19;2004525;-55
2022/12/01 09:54:46;;;;;;;0.00;0.00;;;;;;;12.26;69.19;102155.50;7357951;19;20018;-52
2022/12/01 09:57:34;;;;;;;0.10;0.10;;;;;;;12.34;69.78;102159.81;7360681;19;21585;-56
2022/12/01 10:00:01;;;;;;;;;;;;;;;12.40;70.43;102158.91;7260068;19;2004384;-56
2022/12/01 10:02:39;;;;;;;0.00;0.00;;;;;;;12.39;69.34;102162.41;7356439;19;20344;-56
2022/12/01 10:05:13;;;;;;;0.10;0.10;;;;;;;12.44;68.92;102166.75;7361844;19;20038;-55
2022/12/01 10:07:46;;;;;;;0.00;0.00;;;;;;;12.47;68.97;102160.63;7359693;19;20031;-57
2022/12/01 10:10:48;;;;;;;0.00;0.00;;;;;;;12.53;69.75;102160.56;7362278;19;20019;-58
2022/12/01 10:13:22;;;;;;;0.10;0.10;;;;;;;12.55;69.56;102157.94;7254634;19;2004596;-55
2022/12/01 10:16:06;;;;;;;0.10;0.10;;;;;;;12.60;69.74;102156.16;7362037;19;20018;-58
2022/12/01 10:18:56;;;;;;;0.00;0.00;;;;;;;12.65;68.96;102157.84;7362629;19;20015;-57
2022/12/01 10:21:59;;;;;;;0.10;0.10;;;;;;;12.72;69.19;102154.31;7362395;19;20018;-54
2022/12/01 10:24:43;;;;;;;0.08;0.08;;;;;;;12.77;68.82;102156.88;7259334;19;2004257;-55
2022/12/01 10:27:25;;;;;;;0.00;0.00;;;;;;;12.83;69.02;102154.22;7355688;19;20021;-56
2022/12/01 10:30:04;;;;;;;0.10;0.10;;;;;;;12.75;68.37;102136.81;7361191;19;20017;-55
2022/12/01 10:32:51;;;;;;;0.00;0.00;;;;;;;12.93;68.95;102152.38;7354573;19;20031;-56
2022/12/01 10:35:20;;;;;;;0.10;0.10;;;;;;;12.95;68.47;102156.72;7353986;19;20047;-56
2022/12/01 10:37:47;;;;;;;0.10;0.10;;;;;;;12.99;68.02;102157.56;7360082;19;20021;-56
2022/12/01 10:40:15;;;;;;;0.05;0.05;;;;;;;13.02;68.48;102151.41;7357891;19;20105;-53
2022/12/01 10:42:46;;;;;;;0.10;0.10;;;;;;;13.15;68.21;102146.03;7357861;19;20010;-54
2022/12/01 10:45:27;;;;;;;0.00;0.00;;;;;;;13.22;68.01;102139.84;7357453;19;20018;-57
2022/12/01 10:48:16;;;;;;;0.00;0.00;;;;;;;13.33;68.45;102138.88;7359143;19;20014;-54
2022/12/01 10:51:12;;;;;;;0.10;0.10;;;;;;;13.39;68.21;102133.59;7362347;19;20027;-58
2022/12/01 10:53:37;;;;;;;0.10;0.10;;;;;;;13.39;66.72;102128.34;7260288;19;2004551;-56
2022/12/01 10:56:14;;;;;;;0.10;0.10;;;;;;;13.47;66.62;102131.72;7358419;19;20034;-58
2022/12/01 10:58:51;;;;;;;0.10;0.10;;;;;;;13.50;66.15;102129.06;7359672;19;20018;-56
2022/12/01 11:01:30;;;;;;;0.10;0.10;;;;;;;13.52;67.11;102119.41;7354616;19;20017;-55
2022/12/01 11:04:01;;;;;;;0.05;0.05;;;;;;;13.54;65.60;102122.91;7355185;19;20031;-58
2022/12/01 11:06:30;;;;;;;0.10;0.10;;;;;;;13.50;65.85;102102.81;7358378;19;20845;-58
2022/12/01 11:08:59;;;;;;;0.10;0.10;;;;;;;13.56;65.20;102109.75;7358847;19;20082;-58
2022/12/01 11:11:34;;;;;;;0.00;0.00;;;;;;;13.62;65.93;102114.91;7356677;19;20031;-57
2022/12/01 11:14:19;;;;;;;0.10;0.10;;;;;;;13.58;66.33;102093.06;7359452;19;20010;-59
2022/12/01 11:16:47;;;;;;;0.10;0.10;;;;;;;13.64;64.74;102114.03;7354193;19;20010;-57
2022/12/01 11:19:32;;;;;;;0.10;0.10;;;;;;;13.71;65.51;102110.41;7359948;19;20017;-57
2022/12/01 11:22:00;;;;;;;0.00;0.00;;;;;;;13.70;65.23;102106.06;7352991;19;20844;-55
2022/12/01 11:24:27;;;;;;;0.00;0.00;;;;;;;13.73;64.29;102108.63;7360952;19;20009;-58
2022/12/01 11:26:56;;;;;;;0.00;0.00;;;;;;;13.75;64.19;102103.38;7362552;19;20860;-57
2022/12/01 11:29:37;;;;;;;0.08;0.08;;;;;;;13.75;64.07;102108.63;7367541;19;19998;-58
2022/12/01 11:32:22;;;;;;;0.10;0.10;;;;;;;13.72;64.71;102091.16;7362833;19;20006;-53
2022/12/01 11:34:52;;;;;;;0.00;0.00;;;;;;;13.84;64.02;102110.25;7366427;19;20004;-57
2022/12/01 11:37:21;;;;;;;0.00;0.00;;;;;;;13.86;63.60;102111.09;7361865;19;20014;-58
2022/12/01 11:39:47;;;;;;;0.00;0.00;;;;;;;13.75;63.79;102083.25;7357368;19;20026;-57